sensor_id;sensor_type;location;lat;lon;timestamp;temperature;humidity
24730;DHT22;12832;52.392;13.066;2023-07-13T00:02:17;29.40;42.40
24730;DHT22;12832;52.392;13.066;2023-07-13T00:04:43;29.40;42.40
24730;DHT22;12832;52.392;13.066;2023-07-13T00:07:09;29.40;42.40
24730;DHT22;12832;52.392;13.066;2023-07-13T00:09:35;29.40;42.30
24730;DHT22;12832;52.392;13.066;2023-07-13T00:12:02;29.40;42.30
24730;DHT22;12832;52.392;13.066;2023-07-13T00:14:29;29.40;42.30
24730;DHT22;12832;52.392;13.066;2023-07-13T00:16:55;29.40;42.40
24730;DHT22;12832;52.392;13.066;2023-07-13T00:19:22;29.40;42.40
24730;DHT22;12832;52.392;13.066;2023-07-13T00:21:48;29.40;42.40
24730;DHT22;12832;52.392;13.066;2023-07-13T00:24:17;29.40;42.40
24730;DHT22;12832;52.392;13.066;2023-07-13T00:26:49;29.40;42.40
24730;DHT22;12832;52.392;13.066;2023-07-13T00:29:15;29.40;42.40
24730;DHT22;12832;52.392;13.066;2023-07-13T00:31:42;29.40;42.30
24730;DHT22;12832;52.392;13.066;2023-07-13T00:34:09;29.40;42.40
24730;DHT22;12832;52.392;13.066;2023-07-13T00:36:36;29.40;42.40
24730;DHT22;12832;52.392;13.066;2023-07-13T00:39:02;29.40;42.40
24730;DHT22;12832;52.392;13.066;2023-07-13T00:41:30;29.40;42.40
24730;DHT22;12832;52.392;13.066;2023-07-13T00:43:57;29.40;42.40
24730;DHT22;12832;52.392;13.066;2023-07-13T00:46:29;29.40;42.40
24730;DHT22;12832;52.392;13.066;2023-07-13T00:48:59;29.40;42.40
24730;DHT22;12832;52.392;13.066;2023-07-13T00:51:32;29.40;42.40
24730;DHT22;12832;52.392;13.066;2023-07-13T00:54:04;29.40;42.40
24730;DHT22;12832;52.392;13.066;2023-07-13T00:56:32;29.40;42.40
24730;DHT22;12832;52.392;13.066;2023-07-13T00:59:00;29.40;42.40
24730;DHT22;12832;52.392;13.066;2023-07-13T01:01:27;29.40;42.40
24730;DHT22;12832;52.392;13.066;2023-07-13T01:03:54;29.40;42.40
24730;DHT22;12832;52.392;13.066;2023-07-13T01:06:20;29.40;42.40
24730;DHT22;12832;52.392;13.066;2023-07-13T01:08:46;29.40;42.40
24730;DHT22;12832;52.392;13.066;2023-07-13T01:11:18;29.40;42.40
24730;DHT22;12832;52.392;13.066;2023-07-13T01:13:46;29.40;42.40
24730;DHT22;12832;52.392;13.066;2023-07-13T01:16:18;29.40;42.40
24730;DHT22;12832;52.392;13.066;2023-07-13T01:18:45;29.40;42.40
24730;DHT22;12832;52.392;13.066;2023-07-13T01:21:12;29.40;42.40
24730;DHT22;12832;52.392;13.066;2023-07-13T01:23:38;29.40;42.40
24730;DHT22;12832;52.392;13.066;2023-07-13T01:26:04;29.40;42.40
24730;DHT22;12832;52.392;13.066;2023-07-13T01:28:30;29.40;42.40
24730;DHT22;12832;52.392;13.066;2023-07-13T01:30:58;29.40;42.40
24730;DHT22;12832;52.392;13.066;2023-07-13T01:33:25;29.40;42.40
24730;DHT22;12832;52.392;13.066;2023-07-13T01:35:51;29.40;42.40
24730;DHT22;12832;52.392;13.066;2023-07-13T01:38:20;29.40;42.40
24730;DHT22;12832;52.392;13.066;2023-07-13T01:40:46;29.50;42.40
24730;DHT22;12832;52.392;13.066;2023-07-13T01:43:13;29.50;42.50
24730;DHT22;12832;52.392;13.066;2023-07-13T01:45:39;29.50;42.50
24730;DHT22;12832;52.392;13.066;2023-07-13T01:48:05;29.50;42.40
24730;DHT22;12832;52.392;13.066;2023-07-13T01:50:34;29.50;42.40
24730;DHT22;12832;52.392;13.066;2023-07-13T01:53:01;29.40;42.40
24730;DHT22;12832;52.392;13.066;2023-07-13T01:55:29;29.50;42.40
24730;DHT22;12832;52.392;13.066;2023-07-13T01:57:56;29.50;42.40
24730;DHT22;12832;52.392;13.066;2023-07-13T02:00:22;29.50;42.40
24730;DHT22;12832;52.392;13.066;2023-07-13T02:02:48;29.50;42.40
24730;DHT22;12832;52.392;13.066;2023-07-13T02:05:15;29.50;42.40
24730;DHT22;12832;52.392;13.066;2023-07-13T02:07:41;29.40;42.50
24730;DHT22;12832;52.392;13.066;2023-07-13T02:10:09;29.40;42.60
24730;DHT22;12832;52.392;13.066;2023-07-13T02:12:36;29.40;42.70
24730;DHT22;12832;52.392;13.066;2023-07-13T02:15:04;29.40;42.80
24730;DHT22;12832;52.392;13.066;2023-07-13T02:17:30;29.40;42.90
24730;DHT22;12832;52.392;13.066;2023-07-13T02:19:56;29.40;42.90
24730;DHT22;12832;52.392;13.066;2023-07-13T02:22:22;29.40;42.90
24730;DHT22;12832;52.392;13.066;2023-07-13T02:24:49;29.40;42.90
24730;DHT22;12832;52.392;13.066;2023-07-13T02:27:16;29.40;42.90
24730;DHT22;12832;52.392;13.066;2023-07-13T02:29:42;29.30;42.90
24730;DHT22;12832;52.392;13.066;2023-07-13T02:32:08;29.30;42.90
24730;DHT22;12832;52.392;13.066;2023-07-13T02:34:34;29.30;42.90
24730;DHT22;12832;52.392;13.066;2023-07-13T02:37:01;29.30;42.90
24730;DHT22;12832;52.392;13.066;2023-07-13T02:39:27;29.40;43.00
24730;DHT22;12832;52.392;13.066;2023-07-13T02:41:53;29.30;42.90
24730;DHT22;12832;52.392;13.066;2023-07-13T02:44:19;29.30;42.90
24730;DHT22;12832;52.392;13.066;2023-07-13T02:46:46;29.30;42.90
24730;DHT22;12832;52.392;13.066;2023-07-13T02:49:12;29.30;42.90
24730;DHT22;12832;52.392;13.066;2023-07-13T02:51:38;29.30;42.90
24730;DHT22;12832;52.392;13.066;2023-07-13T02:54:04;29.30;42.90
24730;DHT22;12832;52.392;13.066;2023-07-13T02:56:32;29.30;43.00
24730;DHT22;12832;52.392;13.066;2023-07-13T02:58:58;29.30;42.90
24730;DHT22;12832;52.392;13.066;2023-07-13T03:01:24;29.30;43.00
24730;DHT22;12832;52.392;13.066;2023-07-13T03:03:51;29.30;42.90
24730;DHT22;12832;52.392;13.066;2023-07-13T03:06:18;29.30;42.90
24730;DHT22;12832;52.392;13.066;2023-07-13T03:08:45;29.30;43.00
24730;DHT22;12832;52.392;13.066;2023-07-13T03:11:14;29.30;43.00
24730;DHT22;12832;52.392;13.066;2023-07-13T03:13:41;29.30;43.00
24730;DHT22;12832;52.392;13.066;2023-07-13T03:16:09;29.30;43.00
24730;DHT22;12832;52.392;13.066;2023-07-13T03:18:37;29.30;43.70
24730;DHT22;12832;52.392;13.066;2023-07-13T03:21:04;29.30;43.10
24730;DHT22;12832;52.392;13.066;2023-07-13T03:23:31;29.20;43.00
24730;DHT22;12832;52.392;13.066;2023-07-13T03:26:03;29.20;43.00
24730;DHT22;12832;52.392;13.066;2023-07-13T03:28:29;29.20;43.00
24730;DHT22;12832;52.392;13.066;2023-07-13T03:31:05;29.20;43.00
24730;DHT22;12832;52.392;13.066;2023-07-13T03:33:31;29.20;43.00
24730;DHT22;12832;52.392;13.066;2023-07-13T03:35:58;29.20;43.10
24730;DHT22;12832;52.392;13.066;2023-07-13T03:38:24;29.20;43.00
24730;DHT22;12832;52.392;13.066;2023-07-13T03:40:50;29.20;43.10
24730;DHT22;12832;52.392;13.066;2023-07-13T03:43:17;29.20;43.10
24730;DHT22;12832;52.392;13.066;2023-07-13T03:45:43;29.20;43.00
24730;DHT22;12832;52.392;13.066;2023-07-13T03:48:10;29.20;43.10
24730;DHT22;12832;52.392;13.066;2023-07-13T03:50:36;29.20;43.10
24730;DHT22;12832;52.392;13.066;2023-07-13T03:53:02;29.20;43.00
24730;DHT22;12832;52.392;13.066;2023-07-13T03:55:28;29.20;43.10
24730;DHT22;12832;52.392;13.066;2023-07-13T03:58:23;29.20;43.10
24730;DHT22;12832;52.392;13.066;2023-07-13T04:00:44;29.20;43.10
24730;DHT22;12832;52.392;13.066;2023-07-13T04:03:11;29.20;43.10
24730;DHT22;12832;52.392;13.066;2023-07-13T04:05:37;29.10;43.10
24730;DHT22;12832;52.392;13.066;2023-07-13T04:08:06;29.10;43.70
24730;DHT22;12832;52.392;13.066;2023-07-13T04:10:34;29.10;43.10
24730;DHT22;12832;52.392;13.066;2023-07-13T04:13:00;29.10;43.10
24730;DHT22;12832;52.392;13.066;2023-07-13T04:15:29;29.10;43.10
24730;DHT22;12832;52.392;13.066;2023-07-13T04:17:55;29.10;43.10
24730;DHT22;12832;52.392;13.066;2023-07-13T04:20:21;29.10;43.10
24730;DHT22;12832;52.392;13.066;2023-07-13T04:22:48;29.10;43.10
24730;DHT22;12832;52.392;13.066;2023-07-13T04:25:14;29.10;43.10
24730;DHT22;12832;52.392;13.066;2023-07-13T04:27:40;29.10;43.10
24730;DHT22;12832;52.392;13.066;2023-07-13T04:30:07;29.10;43.10
24730;DHT22;12832;52.392;13.066;2023-07-13T04:32:33;29.10;43.10
24730;DHT22;12832;52.392;13.066;2023-07-13T04:34:59;29.10;43.10
24730;DHT22;12832;52.392;13.066;2023-07-13T04:37:26;29.10;43.20
24730;DHT22;12832;52.392;13.066;2023-07-13T04:39:52;29.10;43.10
24730;DHT22;12832;52.392;13.066;2023-07-13T04:42:19;29.10;43.10
24730;DHT22;12832;52.392;13.066;2023-07-13T04:44:51;29.00;43.10
24730;DHT22;12832;52.392;13.066;2023-07-13T04:47:18;29.10;43.10
24730;DHT22;12832;52.392;13.066;2023-07-13T04:49:45;29.00;43.10
24730;DHT22;12832;52.392;13.066;2023-07-13T04:52:11;29.00;43.10
24730;DHT22;12832;52.392;13.066;2023-07-13T04:54:38;29.00;43.10
24730;DHT22;12832;52.392;13.066;2023-07-13T04:57:05;29.00;43.10
24730;DHT22;12832;52.392;13.066;2023-07-13T04:59:33;29.00;43.20
24730;DHT22;12832;52.392;13.066;2023-07-13T05:01:59;29.00;43.20
24730;DHT22;12832;52.392;13.066;2023-07-13T05:04:25;29.00;42.90
24730;DHT22;12832;52.392;13.066;2023-07-13T05:06:52;29.00;42.90
24730;DHT22;12832;52.392;13.066;2023-07-13T05:09:18;28.90;42.90
24730;DHT22;12832;52.392;13.066;2023-07-13T05:11:44;28.90;43.00
24730;DHT22;12832;52.392;13.066;2023-07-13T05:14:10;28.90;43.10
24730;DHT22;12832;52.392;13.066;2023-07-13T05:16:37;28.80;43.10
24730;DHT22;12832;52.392;13.066;2023-07-13T05:19:03;28.80;43.10
24730;DHT22;12832;52.392;13.066;2023-07-13T05:21:29;28.80;43.10
24730;DHT22;12832;52.392;13.066;2023-07-13T05:23:56;28.80;43.20
24730;DHT22;12832;52.392;13.066;2023-07-13T05:26:24;28.70;43.20
24730;DHT22;12832;52.392;13.066;2023-07-13T05:28:50;28.70;43.30
24730;DHT22;12832;52.392;13.066;2023-07-13T05:31:16;28.70;43.40
24730;DHT22;12832;52.392;13.066;2023-07-13T05:33:42;28.70;43.40
24730;DHT22;12832;52.392;13.066;2023-07-13T05:36:09;28.70;43.50
24730;DHT22;12832;52.392;13.066;2023-07-13T05:38:35;28.60;43.50
24730;DHT22;12832;52.392;13.066;2023-07-13T05:41:01;28.60;43.60
24730;DHT22;12832;52.392;13.066;2023-07-13T05:43:33;28.60;43.60
24730;DHT22;12832;52.392;13.066;2023-07-13T05:45:59;28.60;43.60
24730;DHT22;12832;52.392;13.066;2023-07-13T05:48:26;28.70;43.80
24730;DHT22;12832;52.392;13.066;2023-07-13T05:50:52;28.60;43.70
24730;DHT22;12832;52.392;13.066;2023-07-13T05:53:18;28.60;43.70
24730;DHT22;12832;52.392;13.066;2023-07-13T05:55:45;28.60;43.80
24730;DHT22;12832;52.392;13.066;2023-07-13T05:58:19;28.60;43.80
24730;DHT22;12832;52.392;13.066;2023-07-13T06:00:46;28.60;43.90
24730;DHT22;12832;52.392;13.066;2023-07-13T06:03:13;28.60;43.90
24730;DHT22;12832;52.392;13.066;2023-07-13T06:05:39;28.60;43.90
24730;DHT22;12832;52.392;13.066;2023-07-13T06:08:08;28.50;43.80
24730;DHT22;12832;52.392;13.066;2023-07-13T06:10:35;28.60;43.90
24730;DHT22;12832;52.392;13.066;2023-07-13T06:13:02;28.60;43.90
24730;DHT22;12832;52.392;13.066;2023-07-13T06:15:29;28.60;44.00
24730;DHT22;12832;52.392;13.066;2023-07-13T06:17:55;28.60;44.00
24730;DHT22;12832;52.392;13.066;2023-07-13T06:20:21;28.60;44.00
24730;DHT22;12832;52.392;13.066;2023-07-13T06:22:47;28.60;44.40
24730;DHT22;12832;52.392;13.066;2023-07-13T06:25:14;28.60;44.00
24730;DHT22;12832;52.392;13.066;2023-07-13T06:27:40;28.60;44.00
24730;DHT22;12832;52.392;13.066;2023-07-13T06:30:07;28.50;44.00
24730;DHT22;12832;52.392;13.066;2023-07-13T06:32:33;28.60;44.10
24730;DHT22;12832;52.392;13.066;2023-07-13T06:34:59;28.60;44.10
24730;DHT22;12832;52.392;13.066;2023-07-13T06:37:25;28.60;44.10
24730;DHT22;12832;52.392;13.066;2023-07-13T06:39:52;28.60;44.10
24730;DHT22;12832;52.392;13.066;2023-07-13T06:42:18;28.60;44.10
24730;DHT22;12832;52.392;13.066;2023-07-13T06:44:44;28.60;44.10
24730;DHT22;12832;52.392;13.066;2023-07-13T06:47:10;28.50;44.00
24730;DHT22;12832;52.392;13.066;2023-07-13T06:49:37;28.50;44.00
24730;DHT22;12832;52.392;13.066;2023-07-13T06:52:03;28.60;44.80
24730;DHT22;12832;52.392;13.066;2023-07-13T06:54:30;28.50;44.00
24730;DHT22;12832;52.392;13.066;2023-07-13T06:56:56;28.50;44.00
24730;DHT22;12832;52.392;13.066;2023-07-13T06:59:22;28.50;44.00
24730;DHT22;12832;52.392;13.066;2023-07-13T07:01:48;28.50;44.00
24730;DHT22;12832;52.392;13.066;2023-07-13T07:04:15;28.50;44.00
24730;DHT22;12832;52.392;13.066;2023-07-13T07:06:41;28.50;44.00
24730;DHT22;12832;52.392;13.066;2023-07-13T07:09:07;28.50;44.00
24730;DHT22;12832;52.392;13.066;2023-07-13T07:11:34;28.50;44.00
24730;DHT22;12832;52.392;13.066;2023-07-13T07:14:02;28.50;43.90
24730;DHT22;12832;52.392;13.066;2023-07-13T07:16:28;28.60;44.00
24730;DHT22;12832;52.392;13.066;2023-07-13T07:18:54;28.50;43.90
24730;DHT22;12832;52.392;13.066;2023-07-13T07:21:20;28.50;43.80
24730;DHT22;12832;52.392;13.066;2023-07-13T07:23:49;28.60;43.90
24730;DHT22;12832;52.392;13.066;2023-07-13T07:26:15;28.50;43.90
24730;DHT22;12832;52.392;13.066;2023-07-13T07:28:41;28.50;43.80
24730;DHT22;12832;52.392;13.066;2023-07-13T07:31:14;28.60;43.90
24730;DHT22;12832;52.392;13.066;2023-07-13T07:33:43;28.50;43.80
24730;DHT22;12832;52.392;13.066;2023-07-13T07:36:09;28.50;43.80
24730;DHT22;12832;52.392;13.066;2023-07-13T07:38:38;28.50;43.80
24730;DHT22;12832;52.392;13.066;2023-07-13T07:41:05;28.50;43.70
24730;DHT22;12832;52.392;13.066;2023-07-13T07:43:34;28.50;43.70
24730;DHT22;12832;52.392;13.066;2023-07-13T07:46:01;28.50;43.60
24730;DHT22;12832;52.392;13.066;2023-07-13T07:48:33;28.50;43.70
24730;DHT22;12832;52.392;13.066;2023-07-13T07:51:00;28.50;43.60
24730;DHT22;12832;52.392;13.066;2023-07-13T07:53:26;28.60;43.70
24730;DHT22;12832;52.392;13.066;2023-07-13T07:55:52;28.50;43.70
24730;DHT22;12832;52.392;13.066;2023-07-13T07:58:21;28.50;43.70
24730;DHT22;12832;52.392;13.066;2023-07-13T08:00:51;28.50;43.70
24730;DHT22;12832;52.392;13.066;2023-07-13T08:03:20;28.50;43.70
24730;DHT22;12832;52.392;13.066;2023-07-13T08:05:49;28.50;43.70
24730;DHT22;12832;52.392;13.066;2023-07-13T08:08:21;28.50;43.60
24730;DHT22;12832;52.392;13.066;2023-07-13T08:10:47;28.50;43.60
24730;DHT22;12832;52.392;13.066;2023-07-13T08:13:13;28.50;44.20
24730;DHT22;12832;52.392;13.066;2023-07-13T08:15:40;28.50;43.50
24730;DHT22;12832;52.392;13.066;2023-07-13T08:18:06;28.50;43.50
24730;DHT22;12832;52.392;13.066;2023-07-13T08:20:38;28.50;43.50
24730;DHT22;12832;52.392;13.066;2023-07-13T08:23:06;28.50;43.50
24730;DHT22;12832;52.392;13.066;2023-07-13T08:25:33;28.50;43.40
24730;DHT22;12832;52.392;13.066;2023-07-13T08:27:59;28.50;43.40
24730;DHT22;12832;52.392;13.066;2023-07-13T08:30:25;28.50;43.40
24730;DHT22;12832;52.392;13.066;2023-07-13T08:32:51;28.50;43.30
24730;DHT22;12832;52.392;13.066;2023-07-13T08:35:19;28.50;43.30
24730;DHT22;12832;52.392;13.066;2023-07-13T08:37:45;28.50;43.40
24730;DHT22;12832;52.392;13.066;2023-07-13T08:40:11;28.50;43.40
24730;DHT22;12832;52.392;13.066;2023-07-13T08:42:51;28.50;43.30
24730;DHT22;12832;52.392;13.066;2023-07-13T08:48:12;28.50;43.30
24730;DHT22;12832;52.392;13.066;2023-07-13T08:50:58;28.50;43.30
24730;DHT22;12832;52.392;13.066;2023-07-13T08:53:40;28.50;43.30
24730;DHT22;12832;52.392;13.066;2023-07-13T08:56:25;28.50;43.30
24730;DHT22;12832;52.392;13.066;2023-07-13T08:59:20;28.50;43.90
24730;DHT22;12832;52.392;13.066;2023-07-13T09:02:22;28.50;43.30
24730;DHT22;12832;52.392;13.066;2023-07-13T09:05:04;28.50;43.30
24730;DHT22;12832;52.392;13.066;2023-07-13T09:10:28;28.50;43.30
24730;DHT22;12832;52.392;13.066;2023-07-13T09:13:27;28.50;43.40
24730;DHT22;12832;52.392;13.066;2023-07-13T09:15:59;28.50;43.40
24730;DHT22;12832;52.392;13.066;2023-07-13T09:18:27;28.50;43.40
24730;DHT22;12832;52.392;13.066;2023-07-13T09:21:02;28.50;43.40
24730;DHT22;12832;52.392;13.066;2023-07-13T09:23:30;28.50;43.40
24730;DHT22;12832;52.392;13.066;2023-07-13T09:26:05;28.50;43.30
24730;DHT22;12832;52.392;13.066;2023-07-13T09:28:44;28.50;43.30
24730;DHT22;12832;52.392;13.066;2023-07-13T09:31:17;28.50;43.30
24730;DHT22;12832;52.392;13.066;2023-07-13T09:33:45;28.50;43.20
24730;DHT22;12832;52.392;13.066;2023-07-13T09:36:20;28.50;43.10
24730;DHT22;12832;52.392;13.066;2023-07-13T09:38:49;28.50;43.00
24730;DHT22;12832;52.392;13.066;2023-07-13T09:44:12;28.50;42.60
24730;DHT22;12832;52.392;13.066;2023-07-13T09:46:43;28.50;42.50
24730;DHT22;12832;52.392;13.066;2023-07-13T09:49:11;28.50;42.50
24730;DHT22;12832;52.392;13.066;2023-07-13T09:51:40;28.50;42.50
24730;DHT22;12832;52.392;13.066;2023-07-13T09:54:18;28.50;42.40
24730;DHT22;12832;52.392;13.066;2023-07-13T09:56:44;28.40;42.40
24730;DHT22;12832;52.392;13.066;2023-07-13T09:59:21;28.50;42.40
24730;DHT22;12832;52.392;13.066;2023-07-13T10:01:49;28.50;42.30
24730;DHT22;12832;52.392;13.066;2023-07-13T10:04:21;28.50;42.20
24730;DHT22;12832;52.392;13.066;2023-07-13T10:06:48;28.50;42.20
24730;DHT22;12832;52.392;13.066;2023-07-13T10:09:18;28.50;42.10
24730;DHT22;12832;52.392;13.066;2023-07-13T10:11:45;28.50;42.10
24730;DHT22;12832;52.392;13.066;2023-07-13T10:14:15;28.50;42.10
24730;DHT22;12832;52.392;13.066;2023-07-13T10:16:44;28.50;42.20
24730;DHT22;12832;52.392;13.066;2023-07-13T10:19:24;28.50;42.10
24730;DHT22;12832;52.392;13.066;2023-07-13T10:21:54;28.50;42.10
24730;DHT22;12832;52.392;13.066;2023-07-13T10:24:22;28.40;42.00
24730;DHT22;12832;52.392;13.066;2023-07-13T10:27:10;28.50;42.10
24730;DHT22;12832;52.392;13.066;2023-07-13T10:29:52;28.40;42.10
24730;DHT22;12832;52.392;13.066;2023-07-13T10:32:20;28.50;42.00
24730;DHT22;12832;52.392;13.066;2023-07-13T10:34:48;28.50;42.00
24730;DHT22;12832;52.392;13.066;2023-07-13T10:37:21;28.50;41.90
24730;DHT22;12832;52.392;13.066;2023-07-13T10:39:50;28.50;41.90
24730;DHT22;12832;52.392;13.066;2023-07-13T10:42:27;28.50;41.80
24730;DHT22;12832;52.392;13.066;2023-07-13T10:44:54;28.50;41.80
24730;DHT22;12832;52.392;13.066;2023-07-13T10:47:20;28.50;41.90
24730;DHT22;12832;52.392;13.066;2023-07-13T10:49:49;28.50;41.80
24730;DHT22;12832;52.392;13.066;2023-07-13T10:52:40;28.50;41.70
24730;DHT22;12832;52.392;13.066;2023-07-13T10:55:31;28.50;41.50
24730;DHT22;12832;52.392;13.066;2023-07-13T11:03:34;28.60;41.10
24730;DHT22;12832;52.392;13.066;2023-07-13T11:06:52;28.60;41.00
24730;DHT22;12832;52.392;13.066;2023-07-13T11:11:44;28.60;40.90
24730;DHT22;12832;52.392;13.066;2023-07-13T11:14:30;28.60;40.90
24730;DHT22;12832;52.392;13.066;2023-07-13T11:17:29;28.60;40.90
24730;DHT22;12832;52.392;13.066;2023-07-13T11:22:52;28.60;40.60
24730;DHT22;12832;52.392;13.066;2023-07-13T11:30:36;28.60;40.70
24730;DHT22;12832;52.392;13.066;2023-07-13T11:36:10;28.60;40.70
24730;DHT22;12832;52.392;13.066;2023-07-13T11:38:43;28.70;40.80
24730;DHT22;12832;52.392;13.066;2023-07-13T11:41:19;28.70;40.60
24730;DHT22;12832;52.392;13.066;2023-07-13T11:43:50;28.70;40.60
24730;DHT22;12832;52.392;13.066;2023-07-13T11:46:22;28.70;40.50
24730;DHT22;12832;52.392;13.066;2023-07-13T11:48:49;28.70;40.50
24730;DHT22;12832;52.392;13.066;2023-07-13T11:51:46;28.70;40.50
24730;DHT22;12832;52.392;13.066;2023-07-13T11:54:21;28.70;40.40
24730;DHT22;12832;52.392;13.066;2023-07-13T11:56:49;28.70;40.40
24730;DHT22;12832;52.392;13.066;2023-07-13T11:59:16;28.70;40.20
24730;DHT22;12832;52.392;13.066;2023-07-13T12:01:44;28.70;40.30
24730;DHT22;12832;52.392;13.066;2023-07-13T12:04:32;28.70;40.20
24730;DHT22;12832;52.392;13.066;2023-07-13T12:07:17;28.70;40.20
24730;DHT22;12832;52.392;13.066;2023-07-13T12:09:43;28.70;40.20
24730;DHT22;12832;52.392;13.066;2023-07-13T12:12:17;28.70;40.20
24730;DHT22;12832;52.392;13.066;2023-07-13T12:14:44;28.60;40.10
24730;DHT22;12832;52.392;13.066;2023-07-13T12:17:16;28.70;40.00
24730;DHT22;12832;52.392;13.066;2023-07-13T12:19:42;28.70;40.00
24730;DHT22;12832;52.392;13.066;2023-07-13T12:22:12;28.70;40.10
24730;DHT22;12832;52.392;13.066;2023-07-13T12:24:40;28.70;40.00
24730;DHT22;12832;52.392;13.066;2023-07-13T12:27:24;28.70;40.00
24730;DHT22;12832;52.392;13.066;2023-07-13T12:29:58;28.70;39.80
24730;DHT22;12832;52.392;13.066;2023-07-13T12:32:26;28.70;39.80
24730;DHT22;12832;52.392;13.066;2023-07-13T12:34:54;28.70;39.80
24730;DHT22;12832;52.392;13.066;2023-07-13T12:37:22;28.70;39.90
24730;DHT22;12832;52.392;13.066;2023-07-13T12:39:48;28.70;40.00
24730;DHT22;12832;52.392;13.066;2023-07-13T12:42:27;28.60;40.00
24730;DHT22;12832;52.392;13.066;2023-07-13T12:47:44;28.60;40.20
24730;DHT22;12832;52.392;13.066;2023-07-13T12:50:20;28.60;40.20
24730;DHT22;12832;52.392;13.066;2023-07-13T12:52:52;28.60;40.30
24730;DHT22;12832;52.392;13.066;2023-07-13T12:55:19;28.60;40.30
24730;DHT22;12832;52.392;13.066;2023-07-13T12:57:55;28.60;40.30
24730;DHT22;12832;52.392;13.066;2023-07-13T13:00:31;28.60;40.30
24730;DHT22;12832;52.392;13.066;2023-07-13T13:03:30;28.60;40.30
24730;DHT22;12832;52.392;13.066;2023-07-13T13:06:05;28.60;40.40
24730;DHT22;12832;52.392;13.066;2023-07-13T13:08:34;28.50;40.40
24730;DHT22;12832;52.392;13.066;2023-07-13T13:11:02;28.50;40.30
24730;DHT22;12832;52.392;13.066;2023-07-13T13:13:28;28.50;40.30
24730;DHT22;12832;52.392;13.066;2023-07-13T13:15:55;28.50;40.20
24730;DHT22;12832;52.392;13.066;2023-07-13T13:18:23;28.50;40.20
24730;DHT22;12832;52.392;13.066;2023-07-13T13:20:50;28.50;40.20
24730;DHT22;12832;52.392;13.066;2023-07-13T13:23:19;28.50;40.30
24730;DHT22;12832;52.392;13.066;2023-07-13T13:25:49;28.50;40.30
24730;DHT22;12832;52.392;13.066;2023-07-13T13:28:17;28.50;40.40
24730;DHT22;12832;52.392;13.066;2023-07-13T13:30:44;28.50;40.40
24730;DHT22;12832;52.392;13.066;2023-07-13T13:33:13;28.50;40.40
24730;DHT22;12832;52.392;13.066;2023-07-13T13:35:41;28.50;40.40
24730;DHT22;12832;52.392;13.066;2023-07-13T13:38:15;28.50;40.40
24730;DHT22;12832;52.392;13.066;2023-07-13T13:40:43;28.50;40.50
24730;DHT22;12832;52.392;13.066;2023-07-13T13:43:21;28.50;41.10
24730;DHT22;12832;52.392;13.066;2023-07-13T13:45:55;28.50;40.60
24730;DHT22;12832;52.392;13.066;2023-07-13T13:50:56;28.50;40.40
24730;DHT22;12832;52.392;13.066;2023-07-13T13:53:23;28.50;40.40
24730;DHT22;12832;52.392;13.066;2023-07-13T13:55:50;28.50;40.30
24730;DHT22;12832;52.392;13.066;2023-07-13T13:58:21;28.50;40.30
24730;DHT22;12832;52.392;13.066;2023-07-13T14:00:48;28.50;40.20
24730;DHT22;12832;52.392;13.066;2023-07-13T14:03:17;28.50;40.40
24730;DHT22;12832;52.392;13.066;2023-07-13T14:05:44;28.50;40.40
24730;DHT22;12832;52.392;13.066;2023-07-13T14:08:16;28.50;40.40
24730;DHT22;12832;52.392;13.066;2023-07-13T14:10:47;28.50;40.40
24730;DHT22;12832;52.392;13.066;2023-07-13T14:13:20;28.40;40.40
24730;DHT22;12832;52.392;13.066;2023-07-13T14:15:47;28.50;40.40
24730;DHT22;12832;52.392;13.066;2023-07-13T14:18:14;28.50;40.40
24730;DHT22;12832;52.392;13.066;2023-07-13T14:20:44;28.50;40.30
24730;DHT22;12832;52.392;13.066;2023-07-13T14:23:16;28.50;40.30
24730;DHT22;12832;52.392;13.066;2023-07-13T14:25:43;28.50;40.20
24730;DHT22;12832;52.392;13.066;2023-07-13T14:28:26;28.50;40.20
24730;DHT22;12832;52.392;13.066;2023-07-13T14:30:54;28.50;40.20
24730;DHT22;12832;52.392;13.066;2023-07-13T14:33:21;28.50;40.10
24730;DHT22;12832;52.392;13.066;2023-07-13T14:35:47;28.50;40.10
24730;DHT22;12832;52.392;13.066;2023-07-13T14:38:18;28.50;40.10
24730;DHT22;12832;52.392;13.066;2023-07-13T14:40:45;28.40;39.90
24730;DHT22;12832;52.392;13.066;2023-07-13T14:43:14;28.50;39.90
24730;DHT22;12832;52.392;13.066;2023-07-13T14:45:46;28.50;39.80
24730;DHT22;12832;52.392;13.066;2023-07-13T14:48:19;28.50;39.60
24730;DHT22;12832;52.392;13.066;2023-07-13T14:50:46;28.50;39.60
24730;DHT22;12832;52.392;13.066;2023-07-13T14:53:13;28.50;39.50
24730;DHT22;12832;52.392;13.066;2023-07-13T14:55:40;28.50;39.60
24730;DHT22;12832;52.392;13.066;2023-07-13T14:58:06;28.50;39.50
24730;DHT22;12832;52.392;13.066;2023-07-13T15:00:33;28.50;39.60
24730;DHT22;12832;52.392;13.066;2023-07-13T15:03:00;28.50;39.40
24730;DHT22;12832;52.392;13.066;2023-07-13T15:05:29;28.50;39.30
24730;DHT22;12832;52.392;13.066;2023-07-13T15:07:58;28.50;39.20
24730;DHT22;12832;52.392;13.066;2023-07-13T15:10:30;28.50;39.00
24730;DHT22;12832;52.392;13.066;2023-07-13T15:13:22;28.50;38.80
24730;DHT22;12832;52.392;13.066;2023-07-13T15:15:53;28.50;38.80
24730;DHT22;12832;52.392;13.066;2023-07-13T15:18:21;28.50;38.80
24730;DHT22;12832;52.392;13.066;2023-07-13T15:20:49;28.50;38.70
24730;DHT22;12832;52.392;13.066;2023-07-13T15:23:17;28.50;38.60
24730;DHT22;12832;52.392;13.066;2023-07-13T15:25:43;28.50;38.60
24730;DHT22;12832;52.392;13.066;2023-07-13T15:28:10;28.50;38.50
24730;DHT22;12832;52.392;13.066;2023-07-13T15:33:15;28.50;38.40
24730;DHT22;12832;52.392;13.066;2023-07-13T15:35:45;28.50;38.40
24730;DHT22;12832;52.392;13.066;2023-07-13T15:38:18;28.50;38.40
24730;DHT22;12832;52.392;13.066;2023-07-13T15:40:47;28.40;38.40
24730;DHT22;12832;52.392;13.066;2023-07-13T15:43:15;28.50;38.30
24730;DHT22;12832;52.392;13.066;2023-07-13T15:45:41;28.50;38.40
24730;DHT22;12832;52.392;13.066;2023-07-13T15:48:20;28.50;38.30
24730;DHT22;12832;52.392;13.066;2023-07-13T15:50:49;28.50;38.30
24730;DHT22;12832;52.392;13.066;2023-07-13T15:53:25;28.50;38.20
24730;DHT22;12832;52.392;13.066;2023-07-13T15:55:52;28.50;38.10
24730;DHT22;12832;52.392;13.066;2023-07-13T15:58:18;28.50;38.10
24730;DHT22;12832;52.392;13.066;2023-07-13T16:00:44;28.50;38.10
24730;DHT22;12832;52.392;13.066;2023-07-13T16:03:11;28.50;37.90
24730;DHT22;12832;52.392;13.066;2023-07-13T16:05:38;28.50;37.90